Portada
METAR-TAF:

METAR-TAF

Aeroports :

Bamako, Mali

latitud: 12-32N, longitud: 007-57W, altitud: 380 m

Observació

L'informe es va fer fa 34 minuts, a les 13:30 UTC
Vent 9 kt del Est/Nord-Est, variant entre Nord/Nord-Est i Est
Temperatura 35°C
Humitat 12%
Pressió 1013 hPa
Visibilitat 10 km o més
sense núvols per sota de 1500 mi sense presència de cumulonimbus.

METAR: GABS 091330Z 06009KT 030V100 CAVOK 35/01 Q1013 NOSIG

Hora: 14:04 (14:04 UTC)

Pronòstic

L'informe es va fer fa 3 hores i 4 minuts, a les 11:00 UTC
Pronòstic vàlid del 09 a les 12 UTC al 10 a les 18 UTC
Vent 8 kt del Nord-Est amb ràfegues de 18 kt
Visibilitat: 8000 m

TAF: GABS 091100Z 0912/1018 04008G18KT 8000 NSC

Observacions i pronòstics meteorològics de més de 4000 aeroports (METAR i TAF).

Les estacions disponibles són els punts grocs i vermells al mapa.

Posi el ratolí al punt desitjat per veure el nom de l'estació.

Feu clic per veure les observacions i els pronòstics meteorològics.

Per canviar el mapa: feu clic els botons verds amb una creu de color negre per apropar; al botó verd amb un guió per allunyar la imatge; o en les fletxes verdes per a mapes adjacents.


METAR-TAF: